Time;durP1;ratioP1;P1;durP2;ratioP2;P2;SDS_P1;SDS_P2;PMS_P1;PMS_P2;Temp;Humidity;BMP_temperature;BMP_pressure;BME280_temperature;BME280_humidity;BME280_pressure;Samples;Min_cycle;Max_cycle;Signal;HPM_P1;HPM_P2
2023/11/21 00:00:11;;;;;;;27.13;18.97;;;9.60;99.90;;;;;;5078479;28;20464;-84
2023/11/21 00:02:40;;;;;;;25.70;19.37;;;9.60;99.90;;;;;;5079608;28;20832;-84
2023/11/21 00:05:09;;;;;;;31.73;20.27;;;9.60;99.90;;;;;;5080994;28;20452;-83
2023/11/21 00:07:38;;;;;;;30.43;19.80;;;9.60;99.90;;;;;;5080058;28;20864;-84
2023/11/21 00:10:10;;;;;;;32.67;19.57;;;9.60;99.90;;;;;;5079789;28;20559;-84
2023/11/21 00:12:41;;;;;;;30.23;19.63;;;9.60;99.90;;;;;;5079610;28;20472;-83
2023/11/21 00:15:11;;;;;;;31.87;21.23;;;9.70;99.90;;;;;;5079016;28;20946;-84
2023/11/21 00:17:40;;;;;;;30.30;19.80;;;9.60;99.90;;;;;;5079379;28;20957;-83
2023/11/21 00:20:12;;;;;;;31.60;19.57;;;9.60;99.90;;;;;;5078517;28;20460;-84
2023/11/21 00:22:41;;;;;;;25.97;18.90;;;9.60;99.90;;;;;;5078713;28;20469;-84
2023/11/21 00:25:11;;;;;;;31.10;19.50;;;9.60;99.90;;;;;;5078631;28;20457;-83
2023/11/21 00:27:40;;;;;;;31.13;20.77;;;9.60;99.90;;;;;;5078528;28;20954;-83
2023/11/21 00:30:09;;;;;;;29.90;19.33;;;9.60;99.90;;;;;;5078836;28;20484;-83
2023/11/21 00:32:37;;;;;;;31.23;19.60;;;9.60;99.90;;;;;;5078706;28;20487;-83
2023/11/21 00:35:06;;;;;;;26.63;17.90;;;9.60;99.90;;;;;;5078378;28;20973;-83
2023/11/21 00:37:34;;;;;;;28.93;18.67;;;9.60;99.90;;;;;;5079712;28;21005;-83
2023/11/21 00:40:06;;;;;;;27.30;19.93;;;9.60;99.90;;;;;;5078046;28;20453;-82
2023/11/21 00:42:36;;;;;;;29.03;21.00;;;9.60;99.90;;;;;;5077422;28;20532;-83
2023/11/21 00:45:06;;;;;;;29.27;20.00;;;9.60;99.90;;;;;;5078241;28;20544;-84
2023/11/21 00:47:34;;;;;;;31.00;20.20;;;9.60;99.90;;;;;;5077731;28;20448;-83
2023/11/21 00:50:02;;;;;;;29.30;18.70;;;9.70;99.90;;;;;;5077518;28;20453;-83
2023/11/21 00:52:30;;;;;;;29.03;19.77;;;9.60;99.90;;;;;;5076879;28;20485;-83
2023/11/21 00:54:59;;;;;;;31.13;19.33;;;9.60;99.90;;;;;;5077261;28;20452;-83
2023/11/21 00:57:28;;;;;;;31.47;18.90;;;9.60;99.90;;;;;;5076961;28;20457;-83
2023/11/21 00:59:57;;;;;;;31.57;20.13;;;9.60;99.90;;;;;;5077396;28;21020;-84
2023/11/21 01:02:26;;;;;;;26.37;18.40;;;9.60;99.90;;;;;;5078770;28;20457;-84
2023/11/21 01:04:54;;;;;;;29.77;18.83;;;9.60;99.90;;;;;;5077138;28;20476;-84
2023/11/21 01:07:22;;;;;;;31.43;20.60;;;9.60;99.90;;;;;;5076676;28;20445;-84
2023/11/21 01:09:51;;;;;;;32.60;19.60;;;9.60;99.90;;;;;;5076907;28;20452;-84
2023/11/21 01:12:19;;;;;;;31.13;18.00;;;9.60;99.90;;;;;;5077769;28;20526;-83
2023/11/21 01:14:47;;;;;;;29.73;17.60;;;9.60;99.90;;;;;;5076932;28;20544;-84
2023/11/21 01:17:18;;;;;;;26.47;19.03;;;9.50;99.90;;;;;;5076759;28;20453;-84
2023/11/21 01:19:46;;;;;;;30.53;18.30;;;9.60;99.90;;;;;;5076512;28;20444;-84
2023/11/21 01:22:16;;;;;;;28.90;19.80;;;9.60;99.90;;;;;;5077377;28;20568;-84
2023/11/21 01:24:44;;;;;;;28.77;19.53;;;9.60;99.90;;;;;;5077991;28;20469;-83
2023/11/21 01:27:12;;;;;;;30.57;19.30;;;9.60;99.90;;;;;;5076777;28;20456;-84
2023/11/21 01:29:41;;;;;;;29.00;19.43;;;9.70;99.90;;;;;;5079223;28;20453;-83
2023/11/21 01:32:09;;;;;;;31.73;21.40;;;9.60;99.90;;;;;;5078243;28;20495;-83
2023/11/21 01:34:39;;;;;;;31.47;19.10;;;9.50;99.90;;;;;;5079478;28;20445;-85
2023/11/21 01:37:08;;;;;;;29.27;19.07;;;9.60;99.90;;;;;;5079150;28;20865;-84
2023/11/21 01:39:37;;;;;;;32.77;20.30;;;9.60;99.90;;;;;;5078907;28;20520;-84
2023/11/21 01:42:07;;;;;;;30.80;20.60;;;9.50;99.90;;;;;;5079630;28;20473;-84
2023/11/21 01:44:36;;;;;;;30.60;21.37;;;9.60;99.90;;;;;;5078731;28;20456;-84
2023/11/21 01:47:05;;;;;;;28.90;20.00;;;9.50;99.90;;;;;;5079827;28;20889;-84
2023/11/21 01:49:34;;;;;;;25.60;20.07;;;9.50;99.90;;;;;;5077566;28;20475;-84
2023/11/21 01:52:05;;;;;;;29.43;19.50;;;9.50;99.90;;;;;;5077930;28;20850;-84
2023/11/21 01:54:33;;;;;;;28.60;21.00;;;9.50;99.90;;;;;;5077608;28;20437;-84
2023/11/21 01:57:06;;;;;;;32.80;20.90;;;9.50;99.90;;;;;;5077642;28;20458;-84
2023/11/21 01:59:37;;;;;;;31.63;22.43;;;9.50;99.90;;;;;;5077123;28;20910;-84
2023/11/21 02:02:06;;;;;;;32.80;22.40;;;9.50;99.90;;;;;;5077209;28;20465;-84
2023/11/21 02:04:36;;;;;;;28.50;21.40;;;9.50;99.90;;;;;;5076877;28;20823;-83
2023/11/21 02:07:06;;;;;;;33.87;22.93;;;9.50;99.90;;;;;;5077274;28;20449;-83
2023/11/21 02:09:37;;;;;;;31.63;23.40;;;9.50;99.90;;;;;;5077215;28;20453;-84
2023/11/21 02:12:07;;;;;;;30.97;22.93;;;9.40;99.90;;;;;;5076985;28;20499;-84
2023/11/21 02:14:35;;;;;;;33.90;23.13;;;9.50;99.90;;;;;;5076591;28;20504;-83
2023/11/21 02:17:05;;;;;;;34.83;22.37;;;9.50;99.90;;;;;;5077296;28;20499;-84
2023/11/21 02:19:34;;;;;;;31.70;23.00;;;9.50;99.90;;;;;;5076157;28;20441;-84
2023/11/21 02:22:06;;;;;;;30.27;21.70;;;9.50;99.90;;;;;;5075594;28;20464;-82
2023/11/21 02:24:36;;;;;;;29.97;21.80;;;9.50;99.90;;;;;;5076033;28;20464;-84
2023/11/21 02:27:06;;;;;;;31.23;21.63;;;9.50;99.90;;;;;;5076544;28;20449;-84
2023/11/21 02:29:34;;;;;;;27.43;21.40;;;9.50;99.90;;;;;;5075951;28;20522;-84
2023/11/21 02:32:03;;;;;;;29.83;22.70;;;9.50;99.90;;;;;;5076393;28;20519;-84
2023/11/21 02:34:31;;;;;;;25.60;21.17;;;9.50;99.90;;;;;;5075799;28;20449;-84
2023/11/21 02:37:00;;;;;;;32.00;22.20;;;9.50;99.90;;;;;;5076515;28;20453;-84
2023/11/21 02:39:28;;;;;;;26.50;21.47;;;9.50;99.90;;;;;;5075750;28;20453;-84
2023/11/21 02:41:57;;;;;;;29.50;22.57;;;9.50;99.90;;;;;;5075277;28;20496;-84
2023/11/21 02:44:26;;;;;;;28.37;21.50;;;9.50;99.90;;;;;;5075582;28;20469;-84
2023/11/21 02:46:54;;;;;;;30.63;21.60;;;9.50;99.90;;;;;;5075629;28;20457;-84
2023/11/21 02:49:22;;;;;;;32.07;22.10;;;9.50;99.90;;;;;;5075493;28;20526;-83
2023/11/21 02:51:50;;;;;;;25.73;20.70;;;9.50;99.90;;;;;;5075184;28;20480;-84
2023/11/21 02:54:18;;;;;;;25.57;21.47;;;9.50;99.90;;;;;;5075291;28;20449;-83
2023/11/21 02:56:47;;;;;;;31.10;21.77;;;9.50;99.90;;;;;;5075018;28;20445;-84
2023/11/21 02:59:17;;;;;;;28.87;23.17;;;9.60;99.90;;;;;;5075597;28;20777;-84
2023/11/21 03:01:46;;;;;;;36.13;23.20;;;9.50;99.90;;;;;;5074813;28;20576;-84
2023/11/21 03:04:17;;;;;;;30.60;22.27;;;9.50;99.90;;;;;;5074780;28;20452;-84
2023/11/21 03:06:45;;;;;;;30.27;23.10;;;9.50;99.90;;;;;;5074965;28;20454;-84
2023/11/21 03:09:13;;;;;;;31.30;21.63;;;9.50;99.90;;;;;;5075017;28;20448;-84
2023/11/21 03:11:42;;;;;;;26.60;20.90;;;9.50;99.90;;;;;;5074989;28;20893;-84
2023/11/21 03:14:10;;;;;;;28.03;22.17;;;9.50;99.90;;;;;;5075207;28;20441;-84
2023/11/21 03:16:41;;;;;;;26.67;22.40;;;9.60;99.90;;;;;;5074600;28;20453;-84
2023/11/21 03:19:10;;;;;;;33.27;23.47;;;9.50;99.90;;;;;;5074830;28;20933;-83
2023/11/21 03:21:38;;;;;;;32.23;23.40;;;9.60;99.90;;;;;;5074253;28;20469;-83
2023/11/21 03:24:07;;;;;;;30.67;22.00;;;9.60;99.90;;;;;;5075029;28;20449;-83
2023/11/21 03:26:37;;;;;;;32.67;23.00;;;9.60;99.90;;;;;;5074179;28;20452;-84
2023/11/21 03:29:05;;;;;;;39.80;24.00;;;9.60;99.90;;;;;;5074378;28;20457;-82
2023/11/21 03:31:34;;;;;;;39.40;22.80;;;9.60;99.90;;;;;;5074046;28;21001;-82
2023/11/21 03:34:03;;;;;;;41.40;25.47;;;9.60;99.90;;;;;;5075391;28;20468;-83
2023/11/21 03:36:32;;;;;;;39.00;23.70;;;9.60;99.90;;;;;;5078632;28;20445;-84
2023/11/21 03:39:00;;;;;;;40.37;23.03;;;9.60;99.90;;;;;;5078337;28;20457;-83
2023/11/21 03:41:28;;;;;;;42.47;25.30;;;9.60;99.90;;;;;;5077982;28;20457;-84
2023/11/21 03:43:56;;;;;;;45.40;25.67;;;9.60;99.90;;;;;;5077737;28;20437;-83
2023/11/21 03:46:25;;;;;;;46.43;25.00;;;9.60;99.90;;;;;;5078098;28;20441;-84
2023/11/21 03:48:54;;;;;;;41.83;24.80;;;9.60;99.90;;;;;;5079440;28;20445;-84
2023/11/21 03:51:25;;;;;;;44.83;26.20;;;9.60;99.90;;;;;;5078027;28;20476;-84
2023/11/21 03:53:53;;;;;;;46.10;26.23;;;9.60;99.90;;;;;;5077887;28;20476;-84
2023/11/21 03:56:22;;;;;;;46.60;26.77;;;9.60;99.90;;;;;;5077834;28;20553;-84
2023/11/21 03:58:50;;;;;;;51.70;27.90;;;9.50;99.90;;;;;;5077352;28;20461;-84
2023/11/21 04:01:22;;;;;;;48.90;29.50;;;9.60;99.90;;;;;;5077397;28;20475;-84
2023/11/21 04:03:51;;;;;;;52.80;29.20;;;9.50;99.90;;;;;;5079527;28;20445;-83
2023/11/21 04:06:20;;;;;;;51.37;28.90;;;9.50;99.90;;;;;;5077494;28;20539;-84
2023/11/21 04:08:50;;;;;;;51.67;28.80;;;9.50;99.90;;;;;;5077511;28;20536;-84
2023/11/21 04:11:18;;;;;;;53.20;32.33;;;9.50;99.90;;;;;;5077359;28;20461;-84
2023/11/21 04:13:46;;;;;;;56.30;30.20;;;9.40;99.90;;;;;;5078974;28;20552;-84
2023/11/21 04:16:15;;;;;;;54.03;29.90;;;9.40;99.90;;;;;;5077223;28;21020;-84
2023/11/21 04:18:43;;;;;;;62.37;33.67;;;9.50;99.90;;;;;;5076904;28;20444;-85
2023/11/21 04:21:11;;;;;;;66.23;35.07;;;9.40;99.90;;;;;;5076655;28;20824;-84
2023/11/21 04:23:40;;;;;;;66.57;38.00;;;9.40;99.90;;;;;;5077022;28;20508;-83
2023/11/21 04:26:09;;;;;;;74.70;36.90;;;9.40;99.90;;;;;;5078685;28;20508;-84
2023/11/21 04:28:37;;;;;;;67.47;37.33;;;9.40;99.90;;;;;;5076742;28;20453;-83
2023/11/21 04:31:06;;;;;;;66.97;35.73;;;9.40;99.90;;;;;;5077978;28;20864;-83
2023/11/21 04:33:35;;;;;;;64.00;35.77;;;9.40;99.90;;;;;;5076368;28;20479;-84
2023/11/21 04:36:03;;;;;;;54.10;31.30;;;9.40;99.90;;;;;;5078002;28;20640;-83
2023/11/21 04:38:31;;;;;;;63.50;35.30;;;9.30;99.90;;;;;;5076753;28;20484;-84
2023/11/21 04:40:59;;;;;;;54.90;32.47;;;9.30;99.90;;;;;;5076584;28;20481;-84
2023/11/21 04:43:32;;;;;;;68.83;37.93;;;9.50;99.90;;;;;;5076435;28;20437;-84
2023/11/21 04:46:01;;;;;;;60.40;34.37;;;9.30;99.90;;;;;;5075252;28;20823;-84
2023/11/21 04:48:30;;;;;;;69.43;36.60;;;9.30;99.90;;;;;;5076245;28;20452;-84
2023/11/21 04:50:59;;;;;;;60.97;37.60;;;9.30;99.90;;;;;;5076342;28;20468;-84
2023/11/21 04:53:27;;;;;;;58.93;34.40;;;9.30;99.90;;;;;;5076051;28;20522;-84
2023/11/21 04:55:55;;;;;;;49.80;34.23;;;9.30;99.90;;;;;;5076280;28;20532;-84
2023/11/21 04:58:23;;;;;;;55.13;34.00;;;9.20;99.90;;;;;;5076425;28;21160;-85
2023/11/21 05:00:53;;;;;;;45.37;31.63;;;9.20;99.90;;;;;;5078197;28;20498;-84
2023/11/21 05:03:23;;;;;;;51.17;32.50;;;9.20;99.90;;;;;;5076214;28;20445;-83
2023/11/21 05:05:52;;;;;;;45.00;28.97;;;9.20;99.90;;;;;;5076332;28;20548;-84
2023/11/21 05:08:22;;;;;;;40.63;30.00;;;9.20;99.90;;;;;;5077622;28;20472;-84
2023/11/21 05:10:51;;;;;;;40.57;29.00;;;9.30;99.90;;;;;;5077467;28;20461;-84
2023/11/21 05:13:19;;;;;;;31.27;21.33;;;9.10;99.90;;;;;;5077340;28;20465;-84
2023/11/21 05:15:48;;;;;;;36.10;27.13;;;9.10;99.90;;;;;;5079319;28;20452;-84
2023/11/21 05:18:17;;;;;;;37.43;27.07;;;9.10;99.90;;;;;;5078029;28;20499;-84
2023/11/21 05:20:47;;;;;;;45.90;31.00;;;9.20;99.90;;;;;;5078317;28;20829;-83
2023/11/21 05:23:15;;;;;;;40.40;30.80;;;9.10;99.90;;;;;;5078909;28;20452;-84
2023/11/21 05:25:43;;;;;;;43.40;31.93;;;9.10;99.90;;;;;;5078269;28;20469;-84
2023/11/21 05:28:12;;;;;;;44.10;33.20;;;9.10;99.90;;;;;;5078248;28;20473;-85
2023/11/21 05:30:40;;;;;;;44.60;32.17;;;9.10;99.90;;;;;;5077850;28;20453;-84
2023/11/21 05:33:08;;;;;;;41.87;32.57;;;9.00;99.90;;;;;;5078212;28;20484;-84
2023/11/21 05:35:38;;;;;;;45.23;32.43;;;9.00;99.90;;;;;;5077926;28;20469;-83
2023/11/21 05:38:06;;;;;;;43.90;32.47;;;9.00;99.90;;;;;;5078527;28;20449;-84
2023/11/21 05:40:34;;;;;;;38.53;29.63;;;9.00;99.90;;;;;;5078230;28;20821;-84
2023/11/21 05:43:03;;;;;;;40.80;30.10;;;9.10;99.90;;;;;;5078753;28;20453;-84
2023/11/21 05:45:31;;;;;;;35.47;28.10;;;8.90;99.90;;;;;;5077723;28;20449;-84
2023/11/21 05:48:00;;;;;;;35.00;25.53;;;8.90;99.90;;;;;;5078207;28;20453;-84
2023/11/21 05:50:28;;;;;;;28.20;23.63;;;9.00;99.90;;;;;;5078177;28;20451;-85
2023/11/21 05:52:59;;;;;;;30.70;23.70;;;8.90;99.90;;;;;;5079196;28;20457;-84
2023/11/21 05:55:27;;;;;;;26.33;22.30;;;8.80;99.90;;;;;;5079876;28;20429;-85
2023/11/21 05:57:56;;;;;;;26.40;20.00;;;8.80;99.90;;;;;;5078094;28;20449;-84
2023/11/21 06:00:25;;;;;;;28.37;21.90;;;8.80;99.90;;;;;;5077731;28;20453;-85
2023/11/21 06:02:54;;;;;;;22.97;19.90;;;8.80;99.90;;;;;;5077837;28;20523;-85
2023/11/21 06:05:24;;;;;;;23.50;20.03;;;8.80;99.90;;;;;;5078375;28;20540;-84
2023/11/21 06:07:56;;;;;;;22.73;19.90;;;8.80;99.90;;;;;;5077849;28;20445;-84
2023/11/21 06:10:26;;;;;;;19.50;17.07;;;8.70;99.90;;;;;;5078456;28;20576;-84
2023/11/21 06:12:54;;;;;;;21.30;16.53;;;8.70;99.90;;;;;;5078210;28;20583;-85
2023/11/21 06:15:23;;;;;;;17.47;15.67;;;8.60;99.90;;;;;;5077312;28;20465;-84
2023/11/21 06:17:53;;;;;;;17.97;15.97;;;8.60;99.90;;;;;;5077666;28;20471;-85
2023/11/21 06:20:22;;;;;;;16.67;14.47;;;8.60;99.90;;;;;;5078695;28;20425;-85
2023/11/21 06:22:51;;;;;;;17.20;14.53;;;8.50;99.90;;;;;;5077029;28;20548;-85
2023/11/21 06:25:20;;;;;;;18.07;16.13;;;8.50;99.90;;;;;;5077433;28;20449;-85
2023/11/21 06:27:51;;;;;;;16.87;14.73;;;8.50;99.90;;;;;;5077304;28;20856;-84
2023/11/21 06:30:20;;;;;;;16.40;14.70;;;8.50;99.90;;;;;;5077016;28;20453;-84
2023/11/21 06:32:49;;;;;;;17.70;14.00;;;8.40;99.90;;;;;;5076347;28;20518;-84
2023/11/21 06:35:17;;;;;;;15.77;14.17;;;8.40;99.90;;;;;;5075871;28;20460;-84
2023/11/21 06:37:47;;;;;;;15.90;14.23;;;8.40;99.90;;;;;;5076301;28;20949;-85
2023/11/21 06:40:18;;;;;;;14.50;13.07;;;8.40;99.90;;;;;;5075688;28;20452;-83
2023/11/21 06:42:47;;;;;;;15.83;14.23;;;8.40;99.90;;;;;;5075529;28;20469;-84
2023/11/21 06:45:18;;;;;;;14.87;13.37;;;8.40;99.90;;;;;;5076259;28;20479;-84
2023/11/21 06:47:46;;;;;;;15.43;13.93;;;8.30;99.90;;;;;;5076208;28;20444;-83
2023/11/21 06:50:15;;;;;;;16.10;14.50;;;8.30;99.90;;;;;;5076173;28;20472;-85
2023/11/21 06:52:44;;;;;;;16.00;14.50;;;8.30;99.90;;;;;;5075589;28;20515;-84
2023/11/21 06:55:13;;;;;;;16.47;14.77;;;8.30;99.90;;;;;;5076933;28;20466;-84
2023/11/21 06:57:41;;;;;;;15.87;14.27;;;8.30;99.90;;;;;;5077586;28;20794;-84
2023/11/21 07:00:11;;;;;;;15.77;14.27;;;8.20;99.90;;;;;;5076150;28;20491;-84
2023/11/21 07:02:41;;;;;;;16.43;14.63;;;8.20;99.90;;;;;;5084934;28;20469;-84
2023/11/21 07:05:09;;;;;;;16.60;14.90;;;8.20;99.90;;;;;;5093185;28;20449;-84
2023/11/21 07:07:38;;;;;;;16.47;14.50;;;8.20;99.90;;;;;;5092072;28;20448;-84
2023/11/21 07:10:07;;;;;;;14.43;13.03;;;8.20;99.90;;;;;;5077491;28;20445;-85
2023/11/21 07:12:35;;;;;;;17.00;15.20;;;8.10;99.90;;;;;;5077160;28;20493;-84
2023/11/21 07:15:08;;;;;;;16.87;15.27;;;8.10;99.90;;;;;;5077789;28;20469;-84
2023/11/21 07:17:37;;;;;;;17.77;15.87;;;8.10;99.90;;;;;;5076697;28;20455;-85
2023/11/21 07:20:11;;;;;;;16.67;15.00;;;8.10;99.90;;;;;;5076994;28;20440;-84
2023/11/21 07:22:40;;;;;;;17.97;16.07;;;8.10;99.90;;;;;;5076422;28;20468;-84
2023/11/21 07:25:10;;;;;;;17.23;15.57;;;8.10;99.90;;;;;;5077042;28;20505;-84
2023/11/21 07:27:38;;;;;;;17.33;15.73;;;8.00;99.90;;;;;;5078039;28;20478;-84
2023/11/21 07:30:09;;;;;;;18.17;16.37;;;8.00;99.90;;;;;;5076653;28;20867;-83
2023/11/21 07:32:39;;;;;;;16.97;15.17;;;8.00;99.90;;;;;;5077901;28;20456;-84
2023/11/21 07:35:10;;;;;;;16.80;15.03;;;7.90;99.90;;;;;;5076575;28;20479;-84
2023/11/21 07:37:39;;;;;;;17.13;15.50;;;7.90;99.90;;;;;;5076473;28;20460;-84
2023/11/21 07:40:10;;;;;;;19.30;16.97;;;7.90;99.90;;;;;;5077807;28;20443;-84
2023/11/21 07:42:38;;;;;;;18.63;16.93;;;7.90;99.90;;;;;;5076721;28;20875;-84
2023/11/21 07:45:08;;;;;;;16.80;15.20;;;7.90;99.90;;;;;;5075881;28;20460;-83
2023/11/21 07:47:36;;;;;;;17.07;15.37;;;7.90;99.90;;;;;;5076088;28;20516;-83
2023/11/21 07:50:07;;;;;;;16.53;15.03;;;7.90;99.90;;;;;;5076867;28;20445;-84
2023/11/21 07:52:37;;;;;;;16.87;15.27;;;7.80;99.90;;;;;;5076707;28;20997;-85
2023/11/21 07:55:07;;;;;;;17.17;15.57;;;7.90;99.90;;;;;;5076941;28;20464;-84
2023/11/21 07:57:36;;;;;;;16.10;14.60;;;7.80;99.90;;;;;;5076800;28;20524;-84
2023/11/21 08:00:06;;;;;;;17.80;16.13;;;7.90;99.90;;;;;;5076482;28;20540;-84
2023/11/21 08:02:41;;;;;;;18.20;16.50;;;7.80;99.90;;;;;;5077321;28;20451;-84
2023/11/21 08:05:11;;;;;;;17.57;15.77;;;7.80;99.90;;;;;;5076446;28;20463;-84
2023/11/21 08:07:53;;;;;;;18.30;16.40;;;7.80;99.90;;;;;;5075603;28;20440;-84
2023/11/21 08:10:22;;;;;;;18.07;16.30;;;7.90;99.90;;;;;;5077690;28;20511;-84
2023/11/21 08:12:51;;;;;;;17.33;15.70;;;7.80;99.90;;;;;;5075693;28;20579;-85
2023/11/21 08:15:19;;;;;;;17.20;15.53;;;7.90;99.90;;;;;;5075847;28;20472;-84
2023/11/21 08:17:48;;;;;;;18.60;16.90;;;7.90;99.90;;;;;;5076455;28;20448;-84
2023/11/21 08:20:17;;;;;;;16.60;14.90;;;7.90;99.90;;;;;;5077213;28;20452;-83
2023/11/21 08:22:47;;;;;;;18.67;16.77;;;7.90;99.90;;;;;;5079623;28;20502;-84
2023/11/21 08:25:19;;;;;;;17.17;15.57;;;7.90;99.90;;;;;;5079658;28;20448;-85
2023/11/21 08:27:48;;;;;;;18.27;16.47;;;7.90;99.90;;;;;;5079279;28;20448;-85
2023/11/21 08:30:19;;;;;;;17.27;15.50;;;7.90;99.90;;;;;;5079847;28;20828;-84
2023/11/21 08:32:47;;;;;;;16.60;15.00;;;7.90;99.90;;;;;;5079380;28;20472;-84
2023/11/21 08:35:15;;;;;;;16.67;14.83;;;7.90;99.90;;;;;;5079672;28;20498;-83
2023/11/21 08:37:44;;;;;;;17.57;15.97;;;7.90;99.90;;;;;;5078973;28;20440;-83
2023/11/21 08:40:16;;;;;;;17.63;16.00;;;7.90;99.90;;;;;;5079015;28;20456;-83
2023/11/21 08:42:46;;;;;;;17.90;16.23;;;7.90;99.90;;;;;;5079435;28;20473;-84
2023/11/21 08:45:17;;;;;;;17.20;15.40;;;7.90;99.90;;;;;;5079596;28;20971;-84
2023/11/21 08:47:46;;;;;;;17.30;15.50;;;7.80;99.90;;;;;;5078773;28;20543;-83
2023/11/21 08:50:15;;;;;;;16.57;15.03;;;7.90;99.90;;;;;;5078583;28;20449;-83
2023/11/21 08:52:45;;;;;;;17.20;15.57;;;7.80;99.90;;;;;;5079576;28;20509;-84
2023/11/21 08:55:14;;;;;;;18.63;16.73;;;7.90;99.90;;;;;;5078761;28;20472;-83
2023/11/21 08:57:45;;;;;;;18.80;16.90;;;7.90;99.90;;;;;;5080632;28;20477;-85
2023/11/21 09:00:16;;;;;;;17.57;15.50;;;7.90;99.90;;;;;;5080242;28;20440;-84
2023/11/21 09:02:46;;;;;;;16.63;15.13;;;7.90;99.90;;;;;;5079468;28;20799;-84
2023/11/21 09:05:16;;;;;;;18.67;16.67;;;7.90;99.90;;;;;;5080106;28;20483;-85
2023/11/21 09:07:46;;;;;;;17.13;14.83;;;7.90;99.90;;;;;;5080031;28;20457;-85
2023/11/21 09:10:14;;;;;;;17.60;15.93;;;7.90;99.90;;;;;;5079516;28;20512;-84
2023/11/21 09:12:43;;;;;;;18.87;17.07;;;7.90;99.90;;;;;;5081328;28;20499;-84
2023/11/21 09:15:12;;;;;;;20.00;15.37;;;7.90;99.90;;;;;;5080031;28;20567;-84
2023/11/21 09:17:42;;;;;;;16.87;15.27;;;8.10;99.90;;;;;;5079865;28;20475;-83
2023/11/21 09:20:12;;;;;;;18.43;16.37;;;7.90;99.90;;;;;;5079418;28;20501;-84
2023/11/21 09:22:40;;;;;;;16.13;14.60;;;8.00;99.90;;;;;;5079295;28;20827;-84
2023/11/21 09:25:09;;;;;;;16.83;15.23;;;8.00;99.90;;;;;;5079659;28;20484;-84
2023/11/21 09:27:37;;;;;;;18.07;16.33;;;8.00;99.90;;;;;;5079374;28;20942;-84
2023/11/21 09:30:09;;;;;;;17.97;16.13;;;8.00;99.90;;;;;;5079189;28;20456;-84
2023/11/21 09:32:38;;;;;;;18.23;16.63;;;8.00;99.90;;;;;;5078459;28;20564;-84
2023/11/21 09:35:09;;;;;;;17.60;15.80;;;8.00;99.90;;;;;;5079021;28;20544;-84
2023/11/21 09:37:37;;;;;;;17.60;15.73;;;8.10;99.90;;;;;;5078720;28;20434;-83
2023/11/21 09:40:12;;;;;;;18.23;16.37;;;8.10;99.90;;;;;;5078417;28;20460;-84
2023/11/21 09:42:45;;;;;;;17.23;15.43;;;8.10;99.90;;;;;;5080023;28;20512;-84
2023/11/21 09:45:19;;;;;;;18.70;16.70;;;8.10;99.90;;;;;;5078736;28;20434;-83
2023/11/21 09:47:48;;;;;;;17.93;16.07;;;8.20;99.90;;;;;;5078581;28;20477;-84
2023/11/21 09:50:21;;;;;;;17.47;15.77;;;8.10;99.90;;;;;;5077920;28;20463;-83
2023/11/21 09:52:57;;;;;;;17.83;16.20;;;8.20;99.90;;;;;;5079529;28;20456;-83
2023/11/21 09:55:29;;;;;;;18.73;16.73;;;8.20;99.90;;;;;;5077379;28;20451;-84
2023/11/21 09:57:58;;;;;;;20.63;18.67;;;8.20;99.90;;;;;;5078023;28;20894;-83
2023/11/21 10:00:28;;;;;;;17.87;16.07;;;8.30;99.90;;;;;;5078214;28;20449;-83
2023/11/21 10:02:59;;;;;;;18.87;17.00;;;8.20;99.90;;;;;;5077459;28;20459;-83
2023/11/21 10:05:29;;;;;;;17.50;15.90;;;8.20;99.90;;;;;;5077245;28;20459;-83
2023/11/21 10:07:58;;;;;;;17.67;16.07;;;8.20;99.90;;;;;;5076528;28;20460;-83
2023/11/21 10:10:28;;;;;;;16.93;15.33;;;8.20;99.90;;;;;;5077115;28;20451;-83
2023/11/21 10:13:02;;;;;;;17.67;15.97;;;8.20;99.90;;;;;;5076993;28;20844;-83
2023/11/21 10:15:34;;;;;;;17.27;15.60;;;8.20;99.90;;;;;;5076874;28;20441;-84
2023/11/21 10:18:09;;;;;;;17.43;15.63;;;8.20;99.90;;;;;;5076789;28;20429;-84
2023/11/21 10:20:38;;;;;;;16.47;14.87;;;8.20;99.90;;;;;;5076313;28;20448;-83
2023/11/21 10:23:07;;;;;;;16.07;14.57;;;8.20;99.90;;;;;;5076604;28;20808;-83
2023/11/21 10:25:36;;;;;;;16.90;15.30;;;8.30;99.90;;;;;;5077222;28;20527;-82
2023/11/21 10:28:06;;;;;;;16.30;14.70;;;8.30;99.90;;;;;;5078144;28;20437;-84
2023/11/21 10:30:36;;;;;;;15.33;14.00;;;8.30;99.90;;;;;;5076294;28;20445;-83
2023/11/21 10:33:06;;;;;;;16.43;14.83;;;8.30;99.90;;;;;;5076519;28;20449;-83
2023/11/21 10:35:46;;;;;;;16.00;14.50;;;8.30;99.90;;;;;;5075908;28;20573;-82
2023/11/21 10:38:15;;;;;;;15.57;14.17;;;8.30;99.90;;;;;;5077156;28;20441;-83
2023/11/21 10:40:46;;;;;;;16.50;14.80;;;8.30;99.90;;;;;;5076352;28;20508;-84
2023/11/21 10:43:15;;;;;;;16.70;15.20;;;8.30;99.90;;;;;;5075536;28;20445;-82
2023/11/21 10:45:44;;;;;;;15.10;13.73;;;8.40;99.90;;;;;;5076402;28;20455;-83
2023/11/21 10:48:16;;;;;;;15.10;13.63;;;8.30;99.90;;;;;;5075517;28;20514;-83
2023/11/21 10:50:47;;;;;;;15.37;13.97;;;8.30;99.90;;;;;;5075872;28;20460;-82
2023/11/21 10:53:15;;;;;;;15.47;14.07;;;8.30;99.90;;;;;;5075831;28;20437;-82
2023/11/21 10:55:44;;;;;;;16.10;14.50;;;8.40;99.90;;;;;;5075601;28;20453;-83
2023/11/21 10:58:15;;;;;;;15.43;14.00;;;8.40;99.90;;;;;;5075902;28;20449;-83
2023/11/21 11:00:46;;;;;;;14.57;13.07;;;8.40;99.90;;;;;;5075386;28;20453;-82
2023/11/21 11:03:14;;;;;;;15.10;13.70;;;8.40;99.90;;;;;;5075547;28;20463;-83
2023/11/21 11:05:51;;;;;;;15.27;13.77;;;8.40;99.90;;;;;;5075481;28;20468;-83
2023/11/21 11:08:26;;;;;;;14.77;13.50;;;8.40;99.90;;;;;;5075430;28;21057;-83
2023/11/21 11:10:56;;;;;;;15.90;14.50;;;8.40;99.90;;;;;;5075615;28;20508;-83
2023/11/21 11:13:25;;;;;;;15.70;14.20;;;8.40;99.90;;;;;;5075473;28;20946;-83
2023/11/21 11:16:01;;;;;;;14.37;13.07;;;8.40;99.90;;;;;;5075089;28;20455;-84
2023/11/21 11:18:30;;;;;;;13.93;12.63;;;8.40;99.90;;;;;;5075974;28;20976;-83
2023/11/21 11:21:08;;;;;;;14.57;13.17;;;8.40;99.90;;;;;;5075576;28;20593;-83
2023/11/21 11:23:50;;;;;;;14.57;13.37;;;8.50;99.90;;;;;;5076536;28;20852;-82
2023/11/21 11:26:32;;;;;;;13.13;11.93;;;8.50;99.90;;;;;;5075560;28;20544;-83
2023/11/21 11:29:09;;;;;;;13.57;12.37;;;8.50;99.90;;;;;;5074698;28;20454;-83
2023/11/21 11:31:51;;;;;;;14.93;13.43;;;8.60;99.90;;;;;;5075140;28;21015;-82
2023/11/21 11:34:31;;;;;;;14.60;13.30;;;8.50;99.90;;;;;;5075064;28;20973;-82
2023/11/21 11:37:05;;;;;;;17.57;15.87;;;8.50;99.90;;;;;;5075117;28;20465;-83
2023/11/21 11:39:37;;;;;;;17.50;15.97;;;8.50;99.90;;;;;;5076297;28;20512;-83
2023/11/21 11:42:08;;;;;;;14.93;13.50;;;8.50;99.90;;;;;;5074724;28;20475;-82
2023/11/21 11:44:56;;;;;;;14.80;13.50;;;8.50;99.90;;;;;;5074747;28;20833;-83
2023/11/21 11:47:27;;;;;;;15.07;13.77;;;8.60;99.90;;;;;;5061881;28;20532;-83
2023/11/21 11:50:06;;;;;;;15.37;13.77;;;8.60;99.90;;;;;;5075115;28;20445;-83
2023/11/21 11:52:41;;;;;;;14.17;12.67;;;8.60;99.90;;;;;;5074673;28;20518;-82
2023/11/21 11:55:12;;;;;;;15.20;13.80;;;8.60;99.90;;;;;;5075936;28;20437;-84
2023/11/21 11:57:42;;;;;;;16.03;14.63;;;8.60;99.90;;;;;;5078594;28;20514;-82
2023/11/21 12:00:15;;;;;;;14.37;13.17;;;8.60;99.90;;;;;;5078215;28;20541;-83
2023/11/21 12:02:47;;;;;;;14.30;13.07;;;8.60;99.90;;;;;;5078487;28;20529;-83
2023/11/21 12:05:18;;;;;;;14.47;13.27;;;8.60;99.90;;;;;;5078266;28;20461;-83
2023/11/21 12:07:53;;;;;;;13.20;12.00;;;8.60;99.90;;;;;;5078360;28;20533;-82
2023/11/21 12:10:25;;;;;;;15.00;13.50;;;8.60;99.90;;;;;;5078080;28;20439;-82
2023/11/21 12:12:55;;;;;;;14.20;12.90;;;8.60;99.90;;;;;;5080755;28;20464;-84
2023/11/21 12:15:25;;;;;;;12.97;11.80;;;8.60;99.90;;;;;;5081554;28;20749;-83
2023/11/21 12:17:53;;;;;;;12.67;11.57;;;8.60;99.90;;;;;;5078263;28;20496;-83
2023/11/21 12:20:23;;;;;;;11.43;10.43;;;8.60;99.90;;;;;;5078982;28;20522;-83
2023/11/21 12:22:53;;;;;;;10.90;9.87;;;8.60;99.90;;;;;;5077919;28;20469;-83
2023/11/21 12:25:22;;;;;;;12.57;11.47;;;8.60;99.90;;;;;;5078136;28;20825;-82
2023/11/21 12:27:52;;;;;;;12.27;11.17;;;8.60;99.90;;;;;;5078134;28;20505;-83
2023/11/21 12:30:22;;;;;;;11.67;10.73;;;8.60;99.90;;;;;;5078451;28;20447;-82
2023/11/21 12:32:52;;;;;;;10.70;9.80;;;8.60;99.90;;;;;;5078036;28;20472;-83
2023/11/21 12:35:22;;;;;;;9.40;8.60;;;8.60;99.90;;;;;;5078089;28;20471;-83
2023/11/21 12:37:53;;;;;;;9.80;8.80;;;8.60;99.90;;;;;;5078830;28;20469;-84
2023/11/21 12:40:22;;;;;;;9.43;8.57;;;8.60;99.90;;;;;;5079885;28;20441;-83
2023/11/21 12:42:53;;;;;;;8.43;7.60;;;8.60;99.90;;;;;;5081227;28;20865;-83
2023/11/21 12:45:25;;;;;;;8.53;7.73;;;8.60;99.90;;;;;;5081126;28;20445;-83
2023/11/21 12:47:59;;;;;;;8.00;7.20;;;8.60;99.90;;;;;;5080549;28;20457;-83
2023/11/21 12:50:31;;;;;;;14.90;7.33;;;8.60;99.90;;;;;;5080541;28;20437;-84